Time;durP1;ratioP1;P1;durP2;ratioP2;P2;SDS_P1;SDS_P2;PMS_P1;PMS_P2;Temp;Humidity;BMP_temperature;BMP_pressure;BME280_temperature;BME280_humidity;BME280_pressure;Samples;Min_cycle;Max_cycle;Signal;HPM_P1;HPM_P2
2021/08/18 00:01:53;;;;;;;4.15;2.40;;;;;;;15.58;53.01;100512.88;4901156;28;115955;-63
2021/08/18 00:04:19;;;;;;;3.95;2.45;;;;;;;15.56;52.90;100509.63;4900021;28;122393;-71
2021/08/18 00:06:45;;;;;;;3.75;2.17;;;;;;;15.53;52.86;100516.50;4903474;28;127689;-71
2021/08/18 00:09:12;;;;;;;4.25;2.22;;;;;;;15.53;52.99;100515.69;4918662;28;125604;-71
2021/08/18 00:11:38;;;;;;;3.78;2.10;;;;;;;15.52;53.06;100516.78;4900375;28;108098;-63
2021/08/18 00:14:05;;;;;;;3.80;2.08;;;;;;;15.48;53.25;100516.56;4900781;28;122110;-71
2021/08/18 00:16:31;;;;;;;3.50;2.25;;;;;;;15.46;52.85;100521.50;4901585;28;126565;-66
2021/08/18 00:18:57;;;;;;;3.40;1.90;;;;;;;15.45;53.53;100523.41;4900677;28;98093;-71
2021/08/18 00:21:24;;;;;;;4.00;2.30;;;;;;;15.43;53.57;100522.09;4900630;28;98194;-67
2021/08/18 00:23:50;;;;;;;4.40;2.50;;;;;;;15.41;53.32;100518.88;4899745;28;119194;-71
2021/08/18 00:26:16;;;;;;;3.75;2.20;;;;;;;15.39;53.41;100523.78;4901894;28;98602;-63
2021/08/18 00:28:43;;;;;;;3.63;2.15;;;;;;;15.36;53.45;100522.47;4902462;28;98304;-62
2021/08/18 00:31:13;;;;;;;3.28;2.10;;;;;;;15.34;53.73;100518.47;4901678;28;106781;-63
2021/08/18 00:33:39;;;;;;;2.97;2.00;;;;;;;15.32;54.07;100523.38;4901865;28;99082;-63
2021/08/18 00:36:06;;;;;;;3.78;2.35;;;;;;;15.31;53.60;100519.03;4901262;28;113460;-63
2021/08/18 00:38:32;;;;;;;5.30;2.40;;;;;;;15.25;54.04;100517.50;4900394;28;127939;-62
2021/08/18 00:40:58;;;;;;;3.58;2.10;;;;;;;15.21;54.01;100522.75;4916765;28;97738;-71
2021/08/18 00:43:24;;;;;;;4.22;2.45;;;;;;;15.17;54.12;100517.09;4920552;28;112858;-71
2021/08/18 00:45:50;;;;;;;3.53;2.17;;;;;;;15.16;54.59;100526.34;4920597;28;127989;-63
2021/08/18 00:48:16;;;;;;;3.20;2.10;;;;;;;15.12;54.73;100522.59;4920676;28;107597;-71
2021/08/18 00:50:42;;;;;;;4.75;2.22;;;;;;;15.07;54.69;100519.16;4909025;28;97765;-62
2021/08/18 00:53:08;;;;;;;4.28;2.50;;;;;;;15.05;54.25;100514.06;4898571;28;128629;-63
2021/08/18 00:55:35;;;;;;;5.95;2.60;;;;;;;15.02;54.96;100521.97;4852124;28;109971;-71
2021/08/18 00:58:01;;;;;;;3.55;2.38;;;;;;;14.98;54.73;100519.84;4902013;28;107593;-71
2021/08/18 01:00:27;;;;;;;4.72;2.60;;;;;;;14.95;54.81;100520.44;4868267;28;105612;-63
2021/08/18 01:02:53;;;;;;;3.90;2.40;;;;;;;14.94;54.91;100518.81;4901855;28;99358;-62
2021/08/18 01:05:22;;;;;;;4.32;2.53;;;;;;;14.92;55.23;100520.22;4899513;28;118131;-71
2021/08/18 01:07:52;;;;;;;3.67;2.38;;;;;;;14.88;55.16;100516.47;4915209;28;98509;-63
2021/08/18 01:10:24;;;;;;;3.80;2.38;;;;;;;14.87;55.34;100514.88;4920340;28;97981;-71
2021/08/18 01:12:50;;;;;;;4.10;2.53;;;;;;;14.87;55.28;100517.59;4918907;28;97929;-71
2021/08/18 01:15:18;;;;;;;3.65;2.30;;;;;;;14.86;55.62;100516.78;4922244;28;98664;-71
2021/08/18 01:17:50;;;;;;;5.70;2.78;;;;;;;14.82;55.54;100510.31;4918496;28;105775;-63
2021/08/18 01:20:21;;;;;;;4.27;2.57;;;;;;;14.81;55.62;100507.88;4921672;28;97932;-63
2021/08/18 01:22:48;;;;;;;5.03;2.70;;;;;;;14.87;55.96;100506.72;4921135;28;114122;-62
2021/08/18 01:25:14;;;;;;;4.50;2.63;;;;;;;14.91;55.68;100499.59;4923231;28;127400;-71
2021/08/18 01:27:53;;;;;;;4.93;2.67;;;;;;;14.93;55.67;100514.50;4923212;28;127375;-71
2021/08/18 01:30:20;;;;;;;3.47;2.35;;;;;;;14.95;55.73;100520.44;4924179;28;97852;-71
2021/08/18 01:33:00;;;;;;;3.85;2.47;;;;;;;14.95;55.65;100514.19;4920825;28;110013;-63
2021/08/18 01:35:31;;;;;;;4.18;2.65;;;;;;;14.95;55.70;100522.34;4919102;28;98422;-63
2021/08/18 01:37:57;;;;;;;5.22;2.83;;;;;;;14.97;55.96;100523.66;4904090;28;98485;-71
2021/08/18 01:40:24;;;;;;;4.05;2.40;;;;;;;14.95;56.00;100525.06;4904719;28;97975;-71
2021/08/18 01:42:50;;;;;;;4.68;2.70;;;;;;;14.95;55.79;100525.06;4904338;28;112745;-71
2021/08/18 01:45:27;;;;;;;3.75;2.55;;;;;;;14.93;56.06;100519.09;4904416;28;116273;-72
2021/08/18 01:47:54;;;;;;;5.75;2.70;;;;;;;14.92;55.82;100515.59;4902977;28;98049;-71
2021/08/18 01:50:20;;;;;;;4.53;2.80;;;;;;;14.91;55.77;100515.88;4902432;28;117838;-71
2021/08/18 01:52:54;;;;;;;4.68;2.75;;;;;;;14.87;56.14;100515.66;4903523;28;98066;-71
2021/08/18 01:55:21;;;;;;;5.53;2.80;;;;;;;14.87;56.30;100510.25;4904603;28;98806;-71
2021/08/18 01:57:47;;;;;;;5.00;2.70;;;;;;;14.86;56.17;100511.34;4904196;28;98337;-63
2021/08/18 02:00:15;;;;;;;4.45;2.40;;;;;;;14.84;56.34;100510.81;4904911;28;98037;-71
2021/08/18 02:02:41;;;;;;;4.60;2.70;;;;;;;14.85;56.57;100512.44;4923977;28;97554;-71
2021/08/18 02:05:08;;;;;;;4.82;2.70;;;;;;;14.85;56.31;100506.19;4922235;28;128921;-63
2021/08/18 02:07:35;;;;;;;4.10;2.60;;;;;;;14.84;56.33;100508.09;4905237;28;119583;-70
2021/08/18 02:10:02;;;;;;;4.25;2.63;;;;;;;14.83;56.58;100506.50;4922747;28;98122;-62
2021/08/18 02:12:28;;;;;;;4.40;2.80;;;;;;;14.84;56.61;100510.81;4923948;28;98690;-71
2021/08/18 02:14:54;;;;;;;4.18;2.63;;;;;;;14.84;56.53;100505.41;4922691;28;128616;-63
2021/08/18 02:17:20;;;;;;;4.45;2.60;;;;;;;14.84;56.93;100505.41;4922913;28;126609;-71
2021/08/18 02:19:46;;;;;;;4.97;2.63;;;;;;;14.83;56.70;100506.50;4923862;28;118947;-63
2021/08/18 02:22:12;;;;;;;5.47;3.00;;;;;;;14.83;56.69;100503.00;4921173;28;119002;-71
2021/08/18 02:24:38;;;;;;;4.38;2.72;;;;;;;14.84;57.01;100501.88;4920767;28;128229;-62
2021/08/18 02:27:04;;;;;;;4.63;2.78;;;;;;;14.85;56.67;100490.72;4908050;28;127391;-71
2021/08/18 02:29:30;;;;;;;4.38;2.95;;;;;;;14.85;56.76;100498.06;4903850;28;117645;-63
2021/08/18 02:31:56;;;;;;;5.35;2.78;;;;;;;14.83;57.04;100495.66;4904390;28;99211;-71
2021/08/18 02:34:23;;;;;;;5.88;2.78;;;;;;;14.80;57.17;100490.00;4902291;28;127223;-62
2021/08/18 02:36:49;;;;;;;4.82;2.88;;;;;;;14.80;56.92;100490.00;4903460;28;97996;-62
2021/08/18 02:39:15;;;;;;;4.50;3.00;;;;;;;14.78;57.31;100493.03;4903352;28;117269;-63
2021/08/18 02:41:41;;;;;;;5.45;3.13;;;;;;;14.77;57.27;100491.38;4903171;28;98605;-71
2021/08/18 02:44:07;;;;;;;4.40;3.03;;;;;;;14.75;57.44;100493.59;4903494;28;128681;-63
2021/08/18 02:46:33;;;;;;;5.07;3.05;;;;;;;14.73;57.31;100493.88;4902946;28;127964;-71
2021/08/18 02:48:59;;;;;;;5.32;3.15;;;;;;;14.71;57.20;100487.97;4902284;28;97778;-62
2021/08/18 02:51:25;;;;;;;4.93;3.25;;;;;;;14.70;57.58;100488.25;4867965;28;130924;-63
2021/08/18 02:53:51;;;;;;;7.28;3.30;;;;;;;14.67;57.67;100488.84;4906226;28;98483;-71
2021/08/18 02:56:17;;;;;;;5.35;3.40;;;;;;;14.64;57.85;100490.22;4922772;28;126185;-70
2021/08/18 02:58:43;;;;;;;6.05;3.38;;;;;;;14.62;58.01;100483.47;4922203;28;117532;-70
2021/08/18 03:01:09;;;;;;;5.57;3.65;;;;;;;14.60;57.70;100489.19;4921702;28;127941;-71
2021/08/18 03:03:35;;;;;;;5.50;3.40;;;;;;;14.60;58.01;100496.53;4920010;28;127721;-63
2021/08/18 03:06:01;;;;;;;5.65;3.72;;;;;;;14.60;58.06;100496.53;4920399;28;121085;-62
2021/08/18 03:08:27;;;;;;;5.07;3.10;;;;;;;14.58;58.19;100491.41;4921984;28;117949;-71
2021/08/18 03:10:53;;;;;;;5.78;3.90;;;;;;;14.55;58.24;100486.56;4923567;28;98441;-71
2021/08/18 03:13:20;;;;;;;5.75;3.70;;;;;;;14.50;57.89;100478.50;4920129;28;125280;-71
2021/08/18 03:15:46;;;;;;;6.20;3.97;;;;;;;14.47;58.36;100488.00;4921762;28;98486;-63
2021/08/18 03:18:12;;;;;;;5.72;3.78;;;;;;;14.45;58.16;100482.06;4920842;28;98563;-63
2021/08/18 03:20:38;;;;;;;6.78;4.50;;;;;;;14.43;58.38;100480.75;4917669;28;99241;-63
2021/08/18 03:23:04;;;;;;;7.45;4.47;;;;;;;14.39;58.55;100483.25;4900258;28;127668;-63
2021/08/18 03:25:31;;;;;;;6.53;4.40;;;;;;;14.36;58.67;100481.09;4903340;28;98318;-71
2021/08/18 03:27:57;;;;;;;7.30;4.57;;;;;;;14.34;58.81;100486.00;4902516;28;113439;-71
2021/08/18 03:30:23;;;;;;;5.43;3.70;;;;;;;14.34;58.80;100482.47;4902028;28;98160;-71
2021/08/18 03:32:49;;;;;;;6.10;4.60;;;;;;;14.33;58.93;100484.38;4902551;28;98032;-71
2021/08/18 03:35:15;;;;;;;5.95;4.47;;;;;;;14.32;58.89;100481.97;4902667;28;127689;-63
2021/08/18 03:37:41;;;;;;;5.70;4.10;;;;;;;14.29;59.04;100487.97;4902171;28;117210;-71
2021/08/18 03:40:07;;;;;;;6.43;4.30;;;;;;;14.28;58.88;100484.47;4902039;28;128676;-63
2021/08/18 03:42:33;;;;;;;6.57;4.68;;;;;;;14.27;58.98;100491.00;4900554;28;113102;-71
2021/08/18 03:45:00;;;;;;;5.32;4.00;;;;;;;14.26;59.44;100475.81;4901345;28;127029;-71
2021/08/18 03:47:26;;;;;;;6.13;4.43;;;;;;;14.27;59.21;100492.91;4902782;28;111560;-63
2021/08/18 03:49:52;;;;;;;6.00;4.57;;;;;;;14.28;59.12;100489.09;4913103;28;128228;-63
2021/08/18 03:52:18;;;;;;;7.50;4.85;;;;;;;14.27;58.87;100482.88;4921783;28;99102;-63
2021/08/18 03:54:44;;;;;;;7.57;4.45;;;;;;;14.25;59.36;100493.97;4921330;28;105251;-71
2021/08/18 03:57:10;;;;;;;9.38;4.95;;;;;;;14.27;59.18;100491.00;4921906;28;117461;-71
2021/08/18 03:59:36;;;;;;;7.32;4.50;;;;;;;14.27;59.24;100487.47;4922085;28;98023;-63
2021/08/18 04:02:02;;;;;;;6.30;4.47;;;;;;;14.24;59.33;100484.25;4921363;28;127932;-70
2021/08/18 04:04:28;;;;;;;6.72;4.70;;;;;;;14.25;59.69;100483.13;4920676;28;116819;-71
2021/08/18 04:06:54;;;;;;;6.93;4.15;;;;;;;14.28;59.47;100491.81;4920776;28;117749;-63
2021/08/18 04:09:20;;;;;;;6.15;4.38;;;;;;;14.29;59.19;100479.84;4921609;28;128084;-63
2021/08/18 04:11:46;;;;;;;7.13;4.50;;;;;;;14.25;59.17;100480.41;4920371;28;128933;-63
2021/08/18 04:14:12;;;;;;;6.35;4.68;;;;;;;14.25;59.31;100485.03;4917941;28;127742;-71
2021/08/18 04:16:38;;;;;;;7.38;4.82;;;;;;;14.25;59.53;100482.34;4904838;28;97829;-70
2021/08/18 04:19:04;;;;;;;6.55;4.30;;;;;;;14.25;59.36;100487.75;4902324;28;98156;-63
2021/08/18 04:21:30;;;;;;;7.03;4.20;;;;;;;14.25;60.00;100493.19;4901815;28;113956;-71
2021/08/18 04:23:56;;;;;;;7.10;4.45;;;;;;;14.29;59.74;100490.69;4899668;28;113598;-63
2021/08/18 04:26:23;;;;;;;6.20;4.20;;;;;;;14.33;59.69;100486.31;4900825;28;103800;-71
2021/08/18 04:28:49;;;;;;;6.43;4.25;;;;;;;14.37;59.89;100490.03;4902101;28;103519;-63
2021/08/18 04:31:15;;;;;;;5.85;4.07;;;;;;;14.40;59.48;100490.28;4919483;28;98762;-71
2021/08/18 04:33:41;;;;;;;7.28;4.68;;;;;;;14.42;59.41;100498.09;4902789;28;112160;-71
2021/08/18 04:36:07;;;;;;;6.07;4.07;;;;;;;14.46;59.51;100493.69;4921912;28;103746;-71
2021/08/18 04:38:33;;;;;;;7.03;4.57;;;;;;;14.48;59.96;100503.16;4917631;28;98351;-71
2021/08/18 04:40:59;;;;;;;5.72;4.32;;;;;;;14.53;59.45;100506.94;4900729;28;125092;-63
2021/08/18 04:43:25;;;;;;;6.57;4.10;;;;;;;14.58;59.30;100506.88;4904562;28;97926;-63
2021/08/18 04:45:52;;;;;;;7.78;4.55;;;;;;;14.63;59.16;100501.38;4898352;28;116799;-70
2021/08/18 04:48:19;;;;;;;6.97;4.50;;;;;;;14.66;59.19;100504.31;4877249;28;100406;-71
2021/08/18 04:50:45;;;;;;;6.55;4.30;;;;;;;14.71;59.46;100504.25;4906229;28;115621;-63
2021/08/18 04:53:12;;;;;;;6.63;4.22;;;;;;;14.75;59.04;100504.47;4896092;28;98233;-63
2021/08/18 04:55:39;;;;;;;6.75;4.07;;;;;;;14.76;59.19;100503.34;4881361;28;97884;-71
2021/08/18 04:58:05;;;;;;;5.63;3.95;;;;;;;14.80;59.50;100503.56;4903835;28;98599;-71
2021/08/18 05:00:31;;;;;;;7.07;4.43;;;;;;;14.82;59.29;100496.75;4902146;28;127629;-63
2021/08/18 05:02:57;;;;;;;7.07;4.47;;;;;;;14.86;59.14;100497.78;4901544;28;97842;-71
2021/08/18 05:05:23;;;;;;;6.10;4.15;;;;;;;14.91;59.12;100494.97;4884837;28;98203;-63
2021/08/18 05:07:51;;;;;;;7.70;4.60;;;;;;;15.00;59.48;100505.16;4901278;28;108193;-71
2021/08/18 05:10:17;;;;;;;6.35;4.00;;;;;;;15.08;59.29;100508.00;4902193;28;98726;-70
2021/08/18 05:12:44;;;;;;;5.93;3.97;;;;;;;15.13;59.21;100507.13;4904110;28;111807;-71
2021/08/18 05:15:10;;;;;;;7.07;4.00;;;;;;;15.23;58.72;100502.31;4906396;28;97925;-63
2021/08/18 05:17:36;;;;;;;6.38;4.30;;;;;;;15.27;58.46;100505.25;4922900;28;99061;-63
2021/08/18 05:20:05;;;;;;;6.40;4.28;;;;;;;15.32;59.00;100504.34;4924012;28;111626;-71
2021/08/18 05:22:31;;;;;;;6.97;4.20;;;;;;;15.37;58.45;100505.09;4924355;28;98106;-70
2021/08/18 05:24:57;;;;;;;6.13;3.92;;;;;;;15.37;58.85;100507.00;4926099;28;97816;-71
2021/08/18 05:27:23;;;;;;;6.50;4.53;;;;;;;15.38;58.75;100503.19;4924543;28;97832;-70
2021/08/18 05:29:49;;;;;;;9.25;4.40;;;;;;;15.41;58.40;100499.88;4923065;28;126968;-71
2021/08/18 05:32:15;;;;;;;6.10;3.88;;;;;;;15.48;58.29;100508.41;4923261;28;126500;-63
2021/08/18 05:34:42;;;;;;;6.80;4.40;;;;;;;15.48;58.75;100511.13;4923661;28;119277;-70
2021/08/18 05:37:08;;;;;;;6.45;4.30;;;;;;;15.54;58.83;100512.66;4923188;28;127743;-63
2021/08/18 05:39:34;;;;;;;5.85;3.90;;;;;;;15.61;58.15;100512.28;4923463;28;128093;-70
2021/08/18 05:42:00;;;;;;;5.57;4.00;;;;;;;15.67;58.24;100509.19;4922645;28;127157;-63
2021/08/18 05:44:26;;;;;;;5.70;4.07;;;;;;;15.70;58.15;100513.22;4910950;28;97922;-64
2021/08/18 05:46:53;;;;;;;6.65;4.25;;;;;;;15.77;58.26;100518.28;4923671;28;114958;-63
2021/08/18 05:49:22;;;;;;;5.03;3.70;;;;;;;15.82;58.58;100513.53;4924092;28;97853;-63
2021/08/18 05:51:49;;;;;;;5.93;3.95;;;;;;;15.85;58.06;100504.78;4913987;28;97877;-63
2021/08/18 05:54:15;;;;;;;8.02;3.97;;;;;;;15.89;57.79;100503.06;4920122;28;98173;-63
2021/08/18 05:56:41;;;;;;;6.32;4.10;;;;;;;15.89;58.06;100511.22;4904473;28;97916;-63
2021/08/18 05:59:07;;;;;;;6.32;3.95;;;;;;;15.92;58.47;100505.19;4917414;28;126154;-71
2021/08/18 06:01:33;;;;;;;6.28;3.80;;;;;;;15.93;58.33;100506.00;4923635;28;107666;-63
2021/08/18 06:04:00;;;;;;;5.90;4.20;;;;;;;15.99;58.51;100509.41;4916933;28;97779;-63
2021/08/18 06:06:27;;;;;;;5.07;3.63;;;;;;;16.03;58.46;100513.94;4909283;28;128243;-70
2021/08/18 06:08:54;;;;;;;6.10;3.85;;;;;;;16.05;58.38;100510.94;4922536;28;98717;-70
2021/08/18 06:11:20;;;;;;;5.30;3.78;;;;;;;16.04;58.62;100510.13;4909983;28;98092;-63
2021/08/18 06:13:46;;;;;;;5.28;3.60;;;;;;;16.07;58.73;100517.69;4905950;28;98961;-64
2021/08/18 06:16:12;;;;;;;5.13;3.55;;;;;;;16.11;58.69;100517.84;4917223;28;128055;-71
2021/08/18 06:18:38;;;;;;;6.35;3.40;;;;;;;16.15;58.74;100522.41;4922328;28;114894;-63
2021/08/18 06:21:04;;;;;;;5.57;3.72;;;;;;;16.21;58.74;100517.66;4918853;28;121271;-71
2021/08/18 06:23:32;;;;;;;5.95;3.42;;;;;;;16.26;58.72;100523.00;4905095;28;116431;-63
2021/08/18 06:25:58;;;;;;;4.78;3.47;;;;;;;16.31;58.53;100525.63;4920898;28;98018;-71
2021/08/18 06:28:25;;;;;;;5.13;3.20;;;;;;;16.38;58.47;100519.75;4918796;28;113761;-71
2021/08/18 06:30:53;;;;;;;5.18;3.50;;;;;;;16.49;58.27;100531.22;4909580;28;97980;-63
2021/08/18 06:33:19;;;;;;;4.47;3.20;;;;;;;16.58;58.18;100526.66;4921336;28;98210;-70
2021/08/18 06:35:45;;;;;;;5.05;3.00;;;;;;;16.68;58.31;100532.69;4903783;28;98553;-63
2021/08/18 06:38:11;;;;;;;5.70;3.03;;;;;;;16.81;58.40;100528.34;4908338;28;98575;-71
2021/08/18 06:40:37;;;;;;;5.30;3.00;;;;;;;16.90;57.91;100531.16;4904067;28;127787;-71
2021/08/18 06:43:03;;;;;;;4.32;3.00;;;;;;;16.93;57.96;100530.53;4901306;28;107240;-71
2021/08/18 06:45:30;;;;;;;4.65;2.95;;;;;;;16.97;57.90;100525.28;4902487;28;127762;-71
2021/08/18 06:47:56;;;;;;;3.58;2.45;;;;;;;16.97;57.77;100523.34;4895566;28;106336;-63
2021/08/18 06:50:22;;;;;;;4.75;3.03;;;;;;;17.00;57.76;100520.00;4905734;28;97846;-63
2021/08/18 06:52:48;;;;;;;4.47;2.92;;;;;;;17.05;57.53;100529.97;4923026;28;97941;-63
2021/08/18 06:55:14;;;;;;;3.78;2.65;;;;;;;17.06;57.56;100518.00;4921847;28;126807;-63
2021/08/18 06:57:40;;;;;;;4.13;2.78;;;;;;;17.06;57.47;100513.34;4921224;28;115219;-63
2021/08/18 07:00:08;;;;;;;4.50;2.63;;;;;;;17.07;57.43;100512.22;4922589;28;98443;-62
2021/08/18 07:02:41;;;;;;;4.15;2.38;;;;;;;17.10;57.48;100514.34;4921313;28;97824;-63
2021/08/18 07:05:08;;;;;;;3.50;2.25;;;;;;;17.22;57.33;100518.44;4904726;28;98051;-63
2021/08/18 07:07:34;;;;;;;4.38;2.70;;;;;;;17.33;57.02;100517.03;4909131;28;116087;-71
2021/08/18 07:10:00;;;;;;;4.47;2.45;;;;;;;17.41;56.96;100514.38;4904708;28;98699;-70
2021/08/18 07:12:26;;;;;;;4.18;2.42;;;;;;;17.49;56.79;100512.00;4902394;28;119083;-63
2021/08/18 07:14:52;;;;;;;4.28;2.30;;;;;;;17.57;56.73;100511.25;4903653;28;99720;-71
2021/08/18 07:17:18;;;;;;;4.53;2.63;;;;;;;17.70;56.31;100509.56;4902976;28;126730;-63
2021/08/18 07:19:45;;;;;;;3.83;2.33;;;;;;;17.93;56.17;100521.22;4902326;28;126990;-71
2021/08/18 07:22:11;;;;;;;2.83;2.35;;;;;;;18.26;55.29;100508.00;4903620;28;99296;-63
2021/08/18 07:24:37;;;;;;;3.38;2.30;;;;;;;18.58;54.52;100506.75;4901347;28;98291;-71
2021/08/18 07:27:03;;;;;;;3.78;2.40;;;;;;;18.81;54.15;100499.25;4902339;28;123169;-62
2021/08/18 07:29:30;;;;;;;3.83;2.30;;;;;;;18.99;54.14;100503.59;4904127;28;98594;-71
2021/08/18 07:31:56;;;;;;;3.28;2.47;;;;;;;19.03;53.86;100504.56;4900807;28;98117;-71
2021/08/18 07:34:22;;;;;;;3.97;2.53;;;;;;;19.25;53.62;100500.00;4903943;28;125957;-71
2021/08/18 07:36:48;;;;;;;3.13;2.25;;;;;;;19.58;52.90;100508.47;4923053;28;97793;-71
2021/08/18 07:39:14;;;;;;;4.15;2.75;;;;;;;19.80;52.46;100501.97;4921879;28;127806;-63
2021/08/18 07:41:40;;;;;;;3.78;2.30;;;;;;;20.16;52.26;100501.50;4919258;28;109657;-63
2021/08/18 07:44:06;;;;;;;5.57;3.58;;;;;;;20.36;51.76;100502.66;4900596;28;126519;-71
2021/08/18 07:46:32;;;;;;;5.15;4.00;;;;;;;20.57;50.87;100503.47;4900305;28;124974;-63
2021/08/18 07:48:58;;;;;;;5.05;2.95;;;;;;;20.65;50.73;100507.28;4899604;28;127184;-64
2021/08/18 07:51:24;;;;;;;4.60;2.30;;;;;;;20.65;50.76;100503.75;4919838;28;112119;-71
2021/08/18 07:53:50;;;;;;;3.47;2.25;;;;;;;20.71;50.78;100505.16;4918975;28;126810;-63
2021/08/18 07:56:16;;;;;;;2.83;2.20;;;;;;;20.93;50.06;100501.25;4921899;28;127277;-64
2021/08/18 07:58:42;;;;;;;3.47;1.90;;;;;;;20.96;50.12;100497.88;4918733;28;126378;-71
2021/08/18 08:01:08;;;;;;;3.72;1.80;;;;;;;21.05;50.15;100493.88;4921044;28;118342;-71
2021/08/18 08:03:34;;;;;;;2.88;1.73;;;;;;;21.25;49.83;100496.91;4917151;28;98349;-71
2021/08/18 08:06:00;;;;;;;2.78;1.80;;;;;;;21.28;49.48;100488.81;4901992;28;127738;-64
2021/08/18 08:08:28;;;;;;;2.10;1.63;;;;;;;21.08;49.70;100492.44;4902613;28;97832;-71
2021/08/18 08:10:54;;;;;;;3.05;1.70;;;;;;;21.18;49.75;100500.22;4902192;28;114760;-64
2021/08/18 08:13:20;;;;;;;3.00;1.92;;;;;;;21.47;49.03;100493.81;4912726;28;123098;-70
2021/08/18 08:15:46;;;;;;;2.42;2.05;;;;;;;21.31;49.48;100501.06;4918070;28;126727;-71
2021/08/18 08:18:12;;;;;;;6.93;4.30;;;;;;;21.23;49.42;100497.28;4921525;28;97986;-71
2021/08/18 08:20:42;;;;;;;3.30;2.30;;;;;;;21.54;48.74;100502.28;4919317;28;113160;-64
2021/08/18 08:23:08;;;;;;;20.42;9.93;;;;;;;21.85;47.79;100497.38;4905443;28;98985;-71
2021/08/18 08:25:34;;;;;;;10.43;6.15;;;;;;;21.32;49.02;100483.47;4899358;28;127834;-64
2021/08/18 08:28:00;;;;;;;4.53;2.38;;;;;;;21.13;49.58;100489.47;4899561;28;124626;-64
2021/08/18 08:30:27;;;;;;;3.17;2.20;;;;;;;21.23;49.17;100485.50;4901526;28;116708;-71
2021/08/18 08:32:53;;;;;;;2.95;1.80;;;;;;;21.44;48.87;100490.94;4901608;28;126980;-64
2021/08/18 08:35:19;;;;;;;3.97;2.13;;;;;;;21.32;49.40;100491.69;4917459;28;98337;-71
2021/08/18 08:37:45;;;;;;;2.50;1.80;;;;;;;21.03;49.40;100490.69;4920526;28;124292;-71
2021/08/18 08:40:12;;;;;;;2.85;2.00;;;;;;;20.74;50.20;100496.25;4921478;28;102266;-64
2021/08/18 08:42:39;;;;;;;4.03;1.92;;;;;;;20.46;50.55;100496.75;4920901;28;112182;-71
2021/08/18 08:45:05;;;;;;;2.80;1.75;;;;;;;20.22;51.15;100502.09;4920135;28;98632;-72
2021/08/18 08:47:35;;;;;;;2.38;1.60;;;;;;;20.05;51.70;100500.25;4920270;28;99338;-64
2021/08/18 08:50:02;;;;;;;3.35;1.40;;;;;;;19.93;52.00;100513.84;4915653;28;98002;-72
2021/08/18 08:52:28;;;;;;;2.60;1.77;;;;;;;19.76;53.05;100504.53;4888227;28;103562;-63
2021/08/18 08:54:54;;;;;;;2.95;1.67;;;;;;;19.71;54.12;100514.88;4918086;28;105296;-63
2021/08/18 08:57:20;;;;;;;3.40;2.00;;;;;;;19.58;54.64;100517.47;4918890;28;127056;-71
2021/08/18 08:59:46;;;;;;;3.22;2.20;;;;;;;19.46;55.35;100528.28;4918941;28;118344;-63
2021/08/18 09:02:13;;;;;;;5.30;2.28;;;;;;;19.29;56.51;100528.28;4902045;28;127980;-63
2021/08/18 09:04:45;;;;;;;3.17;2.50;;;;;;;19.11;56.87;100520.13;4917749;28;98937;-71
2021/08/18 09:07:20;;;;;;;3.70;2.23;;;;;;;19.24;57.28;100521.06;4920729;28;98394;-71
2021/08/18 09:10:00;;;;;;;2.80;2.08;;;;;;;19.38;56.71;100508.03;4919776;28;98184;-71
2021/08/18 09:12:37;;;;;;;3.30;2.33;;;;;;;19.61;56.81;100508.66;4920174;28;114340;-63
2021/08/18 09:15:23;;;;;;;2.58;1.85;;;;;;;20.04;56.12;100502.19;4920945;28;99260;-71
2021/08/18 09:17:50;;;;;;;2.28;0.80;;;;;;;20.79;54.84;100515.25;4918604;28;97905;-63
2021/08/18 09:20:23;;;;;;;1.92;0.75;;;;;;;20.71;55.02;100505.16;4918186;28;98393;-71
2021/08/18 09:23:01;;;;;;;1.63;0.70;;;;;;;20.66;55.45;100510.81;4908747;28;100322;-71
2021/08/18 09:25:39;;;;;;;1.35;0.80;;;;;;;20.66;56.02;100503.41;4899815;28;99113;-63
2021/08/18 09:28:05;;;;;;;1.50;0.80;;;;;;;20.94;54.85;100500.91;4912108;28;98391;-71
2021/08/18 09:30:36;;;;;;;1.40;0.60;;;;;;;21.39;53.59;100493.91;4920347;28;99096;-64
2021/08/18 09:33:13;;;;;;;2.83;0.80;;;;;;;23.08;49.86;100487.03;4921391;28;109451;-64
2021/08/18 09:35:40;;;;;;;1.45;0.70;;;;;;;23.24;49.73;100494.13;4920424;28;98679;-64
2021/08/18 09:38:11;;;;;;;1.52;0.60;;;;;;;26.83;42.78;100492.53;4918949;28;120050;-64
2021/08/18 09:40:46;;;;;;;1.10;0.60;;;;;;;27.11;42.91;100494.06;4919263;28;97964;-64
2021/08/18 09:43:25;;;;;;;1.38;0.70;;;;;;;27.95;42.00;100497.22;4921182;28;97783;-72
2021/08/18 09:46:05;;;;;;;1.85;1.00;;;;;;;28.97;40.74;100495.41;4915147;28;98456;-72
2021/08/18 09:48:35;;;;;;;1.35;0.85;;;;;;;27.57;42.33;100496.47;4903918;28;103802;-72
2021/08/18 09:51:03;;;;;;;1.38;0.70;;;;;;;27.35;42.04;100488.00;4902983;28;97779;-72
2021/08/18 09:53:40;;;;;;;1.33;0.82;;;;;;;27.34;42.36;100489.16;4920223;28;98668;-73
2021/08/18 09:56:14;;;;;;;1.25;0.70;;;;;;;27.19;42.35;100490.19;4924512;28;98974;-72
2021/08/18 09:58:40;;;;;;;1.67;0.90;;;;;;;26.51;42.63;100480.28;4923391;28;98035;-73
2021/08/18 10:01:15;;;;;;;1.55;0.70;;;;;;;25.91;44.05;100478.22;4906182;28;98237;-73
2021/08/18 10:03:42;;;;;;;1.60;0.82;;;;;;;25.15;44.11;100483.59;4907612;28;98509;-64
2021/08/18 10:06:10;;;;;;;1.25;0.73;;;;;;;24.46;45.68;100486.91;4886131;28;97791;-72
2021/08/18 10:08:36;;;;;;;1.45;0.90;;;;;;;24.42;45.83;100480.53;4902091;28;97907;-72
2021/08/18 10:11:03;;;;;;;1.35;1.10;;;;;;;24.22;45.46;100476.13;4921049;28;97893;-72
2021/08/18 10:13:30;;;;;;;1.45;0.80;;;;;;;23.90;46.56;100461.63;4917127;28;107848;-72
2021/08/18 10:15:56;;;;;;;2.35;1.02;;;;;;;23.77;46.24;100471.91;4920836;28;98584;-63
2021/08/18 10:18:36;;;;;;;1.80;1.08;;;;;;;23.65;46.21;100459.03;4922340;28;104737;-72
2021/08/18 10:21:10;;;;;;;1.08;0.60;;;;;;;24.94;43.89;100454.41;4909094;28;98010;-64
2021/08/18 10:24:00;;;;;;;1.60;1.20;;;;;;;24.67;44.38;100460.97;4903783;28;98786;-72
2021/08/18 10:26:35;;;;;;;1.10;0.63;;;;;;;25.56;43.02;100453.59;4904088;28;98604;-72
2021/08/18 10:29:19;;;;;;;1.83;0.90;;;;;;;26.14;41.89;100448.59;4903252;28;97991;-64
2021/08/18 10:31:46;;;;;;;2.67;1.10;;;;;;;27.46;39.07;100441.03;4904841;28;97885;-73
2021/08/18 10:34:34;;;;;;;1.52;0.90;;;;;;;26.99;40.52;100445.31;4903194;28;97814;-64
2021/08/18 10:37:20;;;;;;;3.55;2.70;;;;;;;27.29;39.40;100438.91;4903725;28;98578;-64
2021/08/18 10:39:56;;;;;;;5.03;4.03;;;;;;;27.48;39.29;100438.69;4904456;28;98340;-64
2021/08/18 10:42:42;;;;;;;2.22;1.60;;;;;;;27.55;39.52;100430.47;4904139;28;98072;-64
2021/08/18 10:45:23;;;;;;;1.33;1.05;;;;;;;27.19;39.52;100428.53;4903732;28;98732;-73
2021/08/18 10:47:51;;;;;;;1.40;1.07;;;;;;;28.65;36.20;100432.31;4903138;28;98890;-74
2021/08/18 10:50:23;;;;;;;1.20;0.63;;;;;;;30.03;35.06;100428.06;4903292;28;97937;-74
2021/08/18 10:52:50;;;;;;;1.63;0.90;;;;;;;29.43;35.64;100431.66;4904074;28;97708;-64
2021/08/18 10:55:25;;;;;;;1.10;0.50;;;;;;;28.32;37.21;100434.13;4908415;28;118854;-73
2021/08/18 10:57:58;;;;;;;1.55;0.70;;;;;;;28.34;37.09;100419.88;4922805;28;98432;-73
2021/08/18 11:00:43;;;;;;;1.65;0.80;;;;;;;29.16;36.31;100413.81;4914830;28;98635;-73
2021/08/18 11:03:16;;;;;;;0.70;0.40;;;;;;;28.87;36.72;100409.00;4922590;28;97869;-74
2021/08/18 11:05:54;;;;;;;1.27;0.50;;;;;;;29.31;35.74;100412.63;4922236;28;98240;-74
2021/08/18 11:08:40;;;;;;;1.10;0.60;;;;;;;28.32;37.52;100406.41;4922878;28;98762;-74
2021/08/18 11:11:09;;;;;;;0.93;0.50;;;;;;;27.91;37.13;100400.28;4923550;28;97947;-73
2021/08/18 11:14:12;;;;;;;1.00;0.50;;;;;;;27.37;38.16;100396.31;4924080;28;98658;-63
2021/08/18 11:16:38;;;;;;;2.70;0.50;;;;;;;26.69;38.80;100392.88;4901776;28;97933;-63
2021/08/18 11:19:11;;;;;;;1.30;0.55;;;;;;;26.40;39.43;100381.44;4902595;28;126066;-73
2021/08/18 11:21:42;;;;;;;1.77;0.57;;;;;;;26.09;39.82;100392.88;4901068;28;98173;-63
2021/08/18 11:24:16;;;;;;;1.42;0.40;;;;;;;25.81;39.90;100388.56;4869246;28;98131;-73
2021/08/18 11:26:44;;;;;;;0.73;0.40;;;;;;;25.59;39.57;100384.66;4903432;28;98466;-72